Aeroboteco Virtual Airlines! Uma nuvem a frente.



 INFORMAÇÕES METEOROLÓGICAS
METAR FOR CYDB
ADDS - METARS form results

(2315 UTC 18 August 2019)
Data provider http://aviationweather.gov/metar/data/
 
METAR text: CYDB 182308Z 01008KT 320V030 25SM -RA SCT045 BKN060 06/M01 A3016 RMK SC3SC4 SLP249
Conditions at: CYDB (BURWASH , YT, CA) observed 2308 UTC 18 August 2019
Temperature: 6.0°C (43°F)
Dewpoint: -1.0°C (30°F) [RH = 61%]
Pressure (altimeter): 30.16 inches Hg (1021.4 mb)
[Sea-level pressure: 1024.9 mb]
Winds: from the N (10 degrees) at 9 MPH (8 knots; 4.1 m/s)
Visibility: 25 miles (40 km)
Ceiling: 6000 feet AGL
Clouds: scattered clouds at 4500 feet AGL
broken clouds at 6000 feet AGL
Weather: -RA  (light rain)

METAR text: CYDB 182300Z 36008KT 300V020 25SM VCSH SCT050 BKN060 06/M01 A3016 RMK SC3SC4 SLP250
Conditions at: CYDB (BURWASH , YT, CA) observed 2300 UTC 18 August 2019
Temperature: 6.0°C (43°F)
Dewpoint: -1.0°C (30°F) [RH = 61%]
Pressure (altimeter): 30.16 inches Hg (1021.4 mb)
[Sea-level pressure: 1025.0 mb]
Winds: from the N (360 degrees) at 9 MPH (8 knots; 4.1 m/s)
Visibility: 25 miles (40 km)
Ceiling: 6000 feet AGL
Clouds: scattered clouds at 5000 feet AGL
broken clouds at 6000 feet AGL
Weather: VCSH  (showers in vicinity)

Forecast for: CYDB (BURWASH , YT, CA)
Text: TAF CYDB 181738Z 1818/1906 32010KT P6SM SCT040 OVC070
Forecast period: 1800 UTC 18 August 2019 to 0600 UTC 19 August 2019
Forecast type: FROM: standard forecast or significant change
Winds: from the NW (320 degrees) at 12 MPH (10 knots; 5.1 m/s)
Visibility: 6 or more miles 10+ km)
Ceiling: 7000 feet AGL
Clouds: scattered clouds at 4000 feet AGL
overcast cloud deck at 7000 feet AGL
Weather: no significant weather forecast for this period
Text: TEMPO 1818/1906 P6SM -SHRA SCT030 OVC050 RMK NXT FCST BY 190000Z
Forecast period: 1800 UTC 18 August 2019 to 0600 UTC 19 August 2019
Forecast type: TEMPORARY: The following changes expected for less than half the time period
Visibility: 6 or more miles 10+ km)
Ceiling: 5000 feet AGL
Clouds: scattered clouds at 3000 feet AGL
overcast cloud deck at 5000 feet AGL
Weather: -SHRA  (light rain showers)

 MAPA DO AEROPORTO

 INFORMAÇÕES DA PISTA
Pista 10 Tamanho da pista 5000 ft Largura da pista 100 ft
Elevação da pista 2647 ft Ranhura da pista 0 ft Proa da pista 128
Pista 28 Tamanho da pista 5000 ft Largura da pista 100 ft
Elevação da pista 2604 ft Ranhura da pista 0 ft Proa da pista 308

 FREQUÊNCIAS DO AEROPORTO
Tipo ATF Nome MANDTORY F Frequência 122.1 MHZ
Tipo AWOS Nome AWOS Frequência 128.7 MHZ
Tipo RCO Nome WHITEHORSE Frequência 126.7 MHZ
Tipo RDO Nome ARPT RDO Frequência 122.1 MHZ

 AUXÍLIOS DE NAVEGAÇÃO PRÓXIMOS AO AEROPORTO
Tipo NDB Nome Burwash Frequência 341 KHZ